sensor_id;sensor_type;location;lat;lon;timestamp;temperature;humidity
29007;DHT22;16104;48.642;9.008;2023-10-31T00:02:11;14.10;71.10
29007;DHT22;16104;48.642;9.008;2023-10-31T00:07:06;14.10;71.10
29007;DHT22;16104;48.642;9.008;2023-10-31T00:12:02;14.10;70.50
29007;DHT22;16104;48.642;9.008;2023-10-31T00:16:58;14.00;70.90
29007;DHT22;16104;48.642;9.008;2023-10-31T00:21:54;14.10;70.20
29007;DHT22;16104;48.642;9.008;2023-10-31T00:26:51;14.00;69.90
29007;DHT22;16104;48.642;9.008;2023-10-31T00:31:46;14.00;69.70
29007;DHT22;16104;48.642;9.008;2023-10-31T00:36:42;14.00;69.50
29007;DHT22;16104;48.642;9.008;2023-10-31T00:41:39;14.00;69.40
29007;DHT22;16104;48.642;9.008;2023-10-31T00:46:34;13.90;69.30
29007;DHT22;16104;48.642;9.008;2023-10-31T00:51:30;13.90;69.00
29007;DHT22;16104;48.642;9.008;2023-10-31T00:56:25;13.90;68.90
29007;DHT22;16104;48.642;9.008;2023-10-31T02:02:25;13.30;68.40
29007;DHT22;16104;48.642;9.008;2023-10-31T02:07:21;13.20;68.30
29007;DHT22;16104;48.642;9.008;2023-10-31T02:12:37;13.20;68.30
29007;DHT22;16104;48.642;9.008;2023-10-31T03:04:02;13.20;68.70
29007;DHT22;16104;48.642;9.008;2023-10-31T03:08:57;13.10;68.80
29007;DHT22;16104;48.642;9.008;2023-10-31T04:04:50;12.80;68.90
29007;DHT22;16104;48.642;9.008;2023-10-31T04:09:45;12.80;68.90
29007;DHT22;16104;48.642;9.008;2023-10-31T04:15:00;12.80;68.90
29007;DHT22;16104;48.642;9.008;2023-10-31T04:20:07;12.70;69.00
29007;DHT22;16104;48.642;9.008;2023-10-31T04:25:04;12.70;69.10
29007;DHT22;16104;48.642;9.008;2023-10-31T04:30:01;12.60;69.00
29007;DHT22;16104;48.642;9.008;2023-10-31T04:34:56;12.70;69.00
29007;DHT22;16104;48.642;9.008;2023-10-31T04:39:52;12.60;68.80
29007;DHT22;16104;48.642;9.008;2023-10-31T04:44:47;12.60;68.90
29007;DHT22;16104;48.642;9.008;2023-10-31T04:49:43;12.60;68.90
29007;DHT22;16104;48.642;9.008;2023-10-31T04:54:39;12.50;68.80
29007;DHT22;16104;48.642;9.008;2023-10-31T04:59:37;12.50;68.80
29007;DHT22;16104;48.642;9.008;2023-10-31T05:04:38;12.50;68.90
29007;DHT22;16104;48.642;9.008;2023-10-31T05:09:35;12.60;69.00
29007;DHT22;16104;48.642;9.008;2023-10-31T05:14:31;12.50;68.90
29007;DHT22;16104;48.642;9.008;2023-10-31T05:19:26;12.40;68.70
29007;DHT22;16104;48.642;9.008;2023-10-31T05:24:24;12.40;68.50
29007;DHT22;16104;48.642;9.008;2023-10-31T05:29:19;12.40;68.40
29007;DHT22;16104;48.642;9.008;2023-10-31T05:34:15;12.30;68.10
29007;DHT22;16104;48.642;9.008;2023-10-31T05:39:11;12.30;68.10
29007;DHT22;16104;48.642;9.008;2023-10-31T05:44:06;12.40;68.10
29007;DHT22;16104;48.642;9.008;2023-10-31T05:49:21;12.20;68.00
29007;DHT22;16104;48.642;9.008;2023-10-31T05:54:19;12.20;68.10
29007;DHT22;16104;48.642;9.008;2023-10-31T05:59:15;12.20;68.30
29007;DHT22;16104;48.642;9.008;2023-10-31T06:04:10;12.10;68.30
29007;DHT22;16104;48.642;9.008;2023-10-31T06:09:06;12.10;68.40
29007;DHT22;16104;48.642;9.008;2023-10-31T06:14:01;12.10;68.30
29007;DHT22;16104;48.642;9.008;2023-10-31T06:18:57;12.00;68.30
29007;DHT22;16104;48.642;9.008;2023-10-31T06:23:52;12.00;68.30
29007;DHT22;16104;48.642;9.008;2023-10-31T06:28:48;12.00;68.40
29007;DHT22;16104;48.642;9.008;2023-10-31T06:33:43;12.20;68.50
29007;DHT22;16104;48.642;9.008;2023-10-31T06:38:39;12.00;68.50
29007;DHT22;16104;48.642;9.008;2023-10-31T06:43:34;12.10;68.70
29007;DHT22;16104;48.642;9.008;2023-10-31T06:48:30;12.10;68.80
29007;DHT22;16104;48.642;9.008;2023-10-31T06:53:26;11.90;68.70
29007;DHT22;16104;48.642;9.008;2023-10-31T06:58:21;12.00;68.70
29007;DHT22;16104;48.642;9.008;2023-10-31T07:03:17;12.00;68.90
29007;DHT22;16104;48.642;9.008;2023-10-31T07:08:12;12.00;69.10
29007;DHT22;16104;48.642;9.008;2023-10-31T07:13:08;12.00;69.10
29007;DHT22;16104;48.642;9.008;2023-10-31T07:18:09;12.00;69.30
29007;DHT22;16104;48.642;9.008;2023-10-31T07:23:05;12.10;69.70
29007;DHT22;16104;48.642;9.008;2023-10-31T07:28:01;12.10;69.70
29007;DHT22;16104;48.642;9.008;2023-10-31T07:32:56;12.10;69.80
29007;DHT22;16104;48.642;9.008;2023-10-31T07:37:52;12.10;70.00
29007;DHT22;16104;48.642;9.008;2023-10-31T07:42:47;12.20;70.10
29007;DHT22;16104;48.642;9.008;2023-10-31T07:47:43;12.30;70.10
29007;DHT22;16104;48.642;9.008;2023-10-31T07:52:38;12.30;70.10
29007;DHT22;16104;48.642;9.008;2023-10-31T07:57:34;12.40;70.10
29007;DHT22;16104;48.642;9.008;2023-10-31T08:02:29;12.40;70.00
29007;DHT22;16104;48.642;9.008;2023-10-31T08:07:25;12.40;70.10
29007;DHT22;16104;48.642;9.008;2023-10-31T08:12:25;12.50;70.10
29007;DHT22;16104;48.642;9.008;2023-10-31T08:17:20;12.50;70.20
29007;DHT22;16104;48.642;9.008;2023-10-31T08:22:16;12.60;70.20
29007;DHT22;16104;48.642;9.008;2023-10-31T08:27:11;12.60;70.20
29007;DHT22;16104;48.642;9.008;2023-10-31T08:32:08;12.70;70.10
29007;DHT22;16104;48.642;9.008;2023-10-31T08:37:03;12.60;69.90
29007;DHT22;16104;48.642;9.008;2023-10-31T08:41:59;12.80;70.00
29007;DHT22;16104;48.642;9.008;2023-10-31T08:46:54;12.80;69.90
29007;DHT22;16104;48.642;9.008;2023-10-31T08:51:50;12.80;70.60
29007;DHT22;16104;48.642;9.008;2023-10-31T08:56:45;12.90;69.60
29007;DHT22;16104;48.642;9.008;2023-10-31T09:01:41;13.00;69.60
29007;DHT22;16104;48.642;9.008;2023-10-31T09:06:36;13.00;69.60
29007;DHT22;16104;48.642;9.008;2023-10-31T09:11:32;13.10;69.60
29007;DHT22;16104;48.642;9.008;2023-10-31T09:16:27;13.10;69.50
29007;DHT22;16104;48.642;9.008;2023-10-31T09:21:23;13.20;69.50
29007;DHT22;16104;48.642;9.008;2023-10-31T09:26:18;13.30;69.30
29007;DHT22;16104;48.642;9.008;2023-10-31T09:31:14;13.30;69.10
29007;DHT22;16104;48.642;9.008;2023-10-31T09:36:10;13.30;69.20
29007;DHT22;16104;48.642;9.008;2023-10-31T09:41:05;13.40;69.40
29007;DHT22;16104;48.642;9.008;2023-10-31T09:46:02;13.50;69.40
29007;DHT22;16104;48.642;9.008;2023-10-31T09:50:59;13.60;69.10
29007;DHT22;16104;48.642;9.008;2023-10-31T09:55:55;13.70;68.90
29007;DHT22;16104;48.642;9.008;2023-10-31T10:00:52;13.80;68.50
29007;DHT22;16104;48.642;9.008;2023-10-31T10:05:48;14.00;68.20
29007;DHT22;16104;48.642;9.008;2023-10-31T10:10:44;13.80;68.00
29007;DHT22;16104;48.642;9.008;2023-10-31T10:15:50;13.90;68.00
29007;DHT22;16104;48.642;9.008;2023-10-31T10:20:56;14.00;67.90
29007;DHT22;16104;48.642;9.008;2023-10-31T10:25:52;14.00;67.70
29007;DHT22;16104;48.642;9.008;2023-10-31T10:30:48;14.10;67.60
29007;DHT22;16104;48.642;9.008;2023-10-31T10:35:44;14.20;67.70
29007;DHT22;16104;48.642;9.008;2023-10-31T10:40:42;14.20;67.30
29007;DHT22;16104;48.642;9.008;2023-10-31T10:45:38;14.30;67.00
29007;DHT22;16104;48.642;9.008;2023-10-31T10:50:37;14.30;67.10
29007;DHT22;16104;48.642;9.008;2023-10-31T10:55:43;14.40;67.30
29007;DHT22;16104;48.642;9.008;2023-10-31T11:00:40;14.60;66.90
29007;DHT22;16104;48.642;9.008;2023-10-31T11:05:37;14.60;66.20
29007;DHT22;16104;48.642;9.008;2023-10-31T11:10:32;14.70;65.70
29007;DHT22;16104;48.642;9.008;2023-10-31T11:15:28;14.80;66.00
29007;DHT22;16104;48.642;9.008;2023-10-31T11:20:24;15.10;65.90
29007;DHT22;16104;48.642;9.008;2023-10-31T11:25:21;15.10;65.10
29007;DHT22;16104;48.642;9.008;2023-10-31T11:35:21;15.50;64.10
29007;DHT22;16104;48.642;9.008;2023-10-31T11:40:21;15.60;63.60
29007;DHT22;16104;48.642;9.008;2023-10-31T11:45:47;15.70;62.20
29007;DHT22;16104;48.642;9.008;2023-10-31T11:50:43;15.80;61.70
29007;DHT22;16104;48.642;9.008;2023-10-31T11:55:44;15.80;62.30
29007;DHT22;16104;48.642;9.008;2023-10-31T12:00:40;15.80;62.20
29007;DHT22;16104;48.642;9.008;2023-10-31T12:05:35;15.80;62.10
29007;DHT22;16104;48.642;9.008;2023-10-31T12:10:31;15.80;61.80
29007;DHT22;16104;48.642;9.008;2023-10-31T12:15:27;15.80;61.80
29007;DHT22;16104;48.642;9.008;2023-10-31T12:20:22;15.80;61.80
29007;DHT22;16104;48.642;9.008;2023-10-31T12:25:18;15.90;61.50
29007;DHT22;16104;48.642;9.008;2023-10-31T12:30:15;15.80;61.80
29007;DHT22;16104;48.642;9.008;2023-10-31T12:35:13;15.80;61.70
29007;DHT22;16104;48.642;9.008;2023-10-31T12:40:16;15.80;61.90
29007;DHT22;16104;48.642;9.008;2023-10-31T12:45:12;15.80;61.90
29007;DHT22;16104;48.642;9.008;2023-10-31T12:50:15;15.80;61.80
29007;DHT22;16104;48.642;9.008;2023-10-31T12:55:13;15.80;61.40
29007;DHT22;16104;48.642;9.008;2023-10-31T13:00:11;15.80;61.30
29007;DHT22;16104;48.642;9.008;2023-10-31T13:05:12;15.80;62.00
29007;DHT22;16104;48.642;9.008;2023-10-31T13:10:08;15.80;60.90
29007;DHT22;16104;48.642;9.008;2023-10-31T13:15:05;15.90;61.90
29007;DHT22;16104;48.642;9.008;2023-10-31T13:20:01;15.80;61.40
29007;DHT22;16104;48.642;9.008;2023-10-31T13:24:59;15.80;61.40
29007;DHT22;16104;48.642;9.008;2023-10-31T13:29:54;15.80;61.40
29007;DHT22;16104;48.642;9.008;2023-10-31T13:34:50;15.80;60.90
29007;DHT22;16104;48.642;9.008;2023-10-31T13:39:45;16.00;61.80
29007;DHT22;16104;48.642;9.008;2023-10-31T13:44:42;16.30;61.70
29007;DHT22;16104;48.642;9.008;2023-10-31T13:49:37;16.30;60.80
29007;DHT22;16104;48.642;9.008;2023-10-31T13:54:33;16.30;60.30
29007;DHT22;16104;48.642;9.008;2023-10-31T13:59:29;16.30;60.20
29007;DHT22;16104;48.642;9.008;2023-10-31T14:04:24;16.30;60.00
29007;DHT22;16104;48.642;9.008;2023-10-31T14:09:20;16.20;59.80
29007;DHT22;16104;48.642;9.008;2023-10-31T14:14:16;16.20;59.80
29007;DHT22;16104;48.642;9.008;2023-10-31T14:19:12;16.20;59.60
29007;DHT22;16104;48.642;9.008;2023-10-31T14:24:08;16.20;59.50
29007;DHT22;16104;48.642;9.008;2023-10-31T14:29:07;16.20;59.30
29007;DHT22;16104;48.642;9.008;2023-10-31T14:34:02;16.20;59.50
29007;DHT22;16104;48.642;9.008;2023-10-31T14:39:00;16.10;59.50
29007;DHT22;16104;48.642;9.008;2023-10-31T14:43:56;16.10;59.90
29007;DHT22;16104;48.642;9.008;2023-10-31T14:48:51;16.00;60.10
29007;DHT22;16104;48.642;9.008;2023-10-31T14:53:47;16.00;60.40
29007;DHT22;16104;48.642;9.008;2023-10-31T14:58:43;15.90;60.50
29007;DHT22;16104;48.642;9.008;2023-10-31T15:03:38;15.80;60.80
29007;DHT22;16104;48.642;9.008;2023-10-31T15:08:34;15.90;61.30
29007;DHT22;16104;48.642;9.008;2023-10-31T15:13:29;15.70;61.40
29007;DHT22;16104;48.642;9.008;2023-10-31T15:18:26;15.70;61.70
29007;DHT22;16104;48.642;9.008;2023-10-31T15:23:22;15.60;61.80
29007;DHT22;16104;48.642;9.008;2023-10-31T15:28:17;15.50;62.00
29007;DHT22;16104;48.642;9.008;2023-10-31T15:33:13;15.50;62.30
29007;DHT22;16104;48.642;9.008;2023-10-31T15:38:08;15.60;62.70
29007;DHT22;16104;48.642;9.008;2023-10-31T15:43:04;15.40;63.00
29007;DHT22;16104;48.642;9.008;2023-10-31T15:47:59;15.20;63.20
29007;DHT22;16104;48.642;9.008;2023-10-31T15:52:55;15.40;63.70
29007;DHT22;16104;48.642;9.008;2023-10-31T15:57:50;15.20;63.60
29007;DHT22;16104;48.642;9.008;2023-10-31T16:02:46;15.20;63.90
29007;DHT22;16104;48.642;9.008;2023-10-31T16:07:41;15.10;63.70
29007;DHT22;16104;48.642;9.008;2023-10-31T16:12:37;15.00;63.80
29007;DHT22;16104;48.642;9.008;2023-10-31T16:17:33;14.80;64.60
29007;DHT22;16104;48.642;9.008;2023-10-31T16:22:28;14.80;63.90
29007;DHT22;16104;48.642;9.008;2023-10-31T16:27:24;14.70;64.00
29007;DHT22;16104;48.642;9.008;2023-10-31T16:32:19;14.60;64.10
29007;DHT22;16104;48.642;9.008;2023-10-31T16:37:15;14.70;64.50
29007;DHT22;16104;48.642;9.008;2023-10-31T16:42:10;14.40;64.60
29007;DHT22;16104;48.642;9.008;2023-10-31T16:47:06;14.30;65.00
29007;DHT22;16104;48.642;9.008;2023-10-31T16:52:01;14.20;65.30
29007;DHT22;16104;48.642;9.008;2023-10-31T16:56:57;14.10;65.50
29007;DHT22;16104;48.642;9.008;2023-10-31T17:01:53;14.10;65.80
29007;DHT22;16104;48.642;9.008;2023-10-31T17:06:48;14.00;66.00
29007;DHT22;16104;48.642;9.008;2023-10-31T17:11:45;13.90;66.20
29007;DHT22;16104;48.642;9.008;2023-10-31T17:16:48;13.90;66.40
29007;DHT22;16104;48.642;9.008;2023-10-31T17:21:44;13.80;66.60
29007;DHT22;16104;48.642;9.008;2023-10-31T17:26:39;13.70;66.70
29007;DHT22;16104;48.642;9.008;2023-10-31T17:31:39;13.70;67.00
29007;DHT22;16104;48.642;9.008;2023-10-31T17:36:35;13.60;67.30
29007;DHT22;16104;48.642;9.008;2023-10-31T17:41:30;13.60;67.30
29007;DHT22;16104;48.642;9.008;2023-10-31T17:46:26;13.50;67.20
29007;DHT22;16104;48.642;9.008;2023-10-31T17:51:22;13.50;67.30
29007;DHT22;16104;48.642;9.008;2023-10-31T17:56:17;13.50;67.50
29007;DHT22;16104;48.642;9.008;2023-10-31T18:01:13;13.40;67.60
29007;DHT22;16104;48.642;9.008;2023-10-31T18:06:08;13.40;67.80
29007;DHT22;16104;48.642;9.008;2023-10-31T18:11:04;13.30;67.90
29007;DHT22;16104;48.642;9.008;2023-10-31T18:16:01;13.30;68.20
29007;DHT22;16104;48.642;9.008;2023-10-31T18:20:57;13.30;68.50
29007;DHT22;16104;48.642;9.008;2023-10-31T18:25:56;13.20;68.80
29007;DHT22;16104;48.642;9.008;2023-10-31T18:30:52;13.30;69.10
29007;DHT22;16104;48.642;9.008;2023-10-31T18:35:47;13.30;69.50
29007;DHT22;16104;48.642;9.008;2023-10-31T18:40:43;13.20;69.50
29007;DHT22;16104;48.642;9.008;2023-10-31T18:45:38;13.30;69.70
29007;DHT22;16104;48.642;9.008;2023-10-31T18:50:34;13.30;69.80
29007;DHT22;16104;48.642;9.008;2023-10-31T18:55:29;13.20;70.00
29007;DHT22;16104;48.642;9.008;2023-10-31T19:00:25;13.10;70.10
29007;DHT22;16104;48.642;9.008;2023-10-31T19:05:21;13.30;70.20
29007;DHT22;16104;48.642;9.008;2023-10-31T19:10:18;13.30;70.30
29007;DHT22;16104;48.642;9.008;2023-10-31T19:15:14;13.30;70.20
29007;DHT22;16104;48.642;9.008;2023-10-31T19:20:10;13.30;70.20
29007;DHT22;16104;48.642;9.008;2023-10-31T19:25:05;13.30;70.20
29007;DHT22;16104;48.642;9.008;2023-10-31T19:30:02;13.30;70.30
29007;DHT22;16104;48.642;9.008;2023-10-31T19:34:57;13.50;70.50
29007;DHT22;16104;48.642;9.008;2023-10-31T19:39:53;13.30;70.20
29007;DHT22;16104;48.642;9.008;2023-10-31T19:44:49;13.30;70.40
29007;DHT22;16104;48.642;9.008;2023-10-31T19:49:44;13.30;70.40
29007;DHT22;16104;48.642;9.008;2023-10-31T19:54:40;13.40;70.40
29007;DHT22;16104;48.642;9.008;2023-10-31T19:59:38;13.30;70.20
29007;DHT22;16104;48.642;9.008;2023-10-31T20:04:34;13.30;70.40
29007;DHT22;16104;48.642;9.008;2023-10-31T20:09:30;13.30;70.20
29007;DHT22;16104;48.642;9.008;2023-10-31T20:14:26;13.30;70.20
29007;DHT22;16104;48.642;9.008;2023-10-31T20:19:21;13.30;70.00
29007;DHT22;16104;48.642;9.008;2023-10-31T20:24:19;13.30;70.00
29007;DHT22;16104;48.642;9.008;2023-10-31T20:29:15;13.30;69.80
29007;DHT22;16104;48.642;9.008;2023-10-31T20:34:11;13.30;69.80
29007;DHT22;16104;48.642;9.008;2023-10-31T20:39:07;13.30;69.70
29007;DHT22;16104;48.642;9.008;2023-10-31T20:44:25;13.30;69.70
29007;DHT22;16104;48.642;9.008;2023-10-31T20:49:20;13.30;69.90
29007;DHT22;16104;48.642;9.008;2023-10-31T20:54:17;13.10;69.50
29007;DHT22;16104;48.642;9.008;2023-10-31T20:59:12;13.20;69.50
29007;DHT22;16104;48.642;9.008;2023-10-31T21:04:09;13.20;69.50
29007;DHT22;16104;48.642;9.008;2023-10-31T21:09:05;13.10;69.50
29007;DHT22;16104;48.642;9.008;2023-10-31T21:14:01;13.10;69.60
29007;DHT22;16104;48.642;9.008;2023-10-31T21:18:58;13.10;69.50
29007;DHT22;16104;48.642;9.008;2023-10-31T21:23:53;13.00;69.40
29007;DHT22;16104;48.642;9.008;2023-10-31T21:28:52;13.00;69.30
29007;DHT22;16104;48.642;9.008;2023-10-31T21:33:48;13.00;69.30
29007;DHT22;16104;48.642;9.008;2023-10-31T21:38:44;13.00;69.30
29007;DHT22;16104;48.642;9.008;2023-10-31T21:43:39;12.90;69.20
29007;DHT22;16104;48.642;9.008;2023-10-31T21:48:35;12.90;69.20
29007;DHT22;16104;48.642;9.008;2023-10-31T21:53:31;12.80;69.10
29007;DHT22;16104;48.642;9.008;2023-10-31T21:58:26;12.80;69.10
29007;DHT22;16104;48.642;9.008;2023-10-31T22:03:22;12.80;69.10
29007;DHT22;16104;48.642;9.008;2023-10-31T22:08:19;12.80;69.10
29007;DHT22;16104;48.642;9.008;2023-10-31T22:13:19;12.70;69.10
29007;DHT22;16104;48.642;9.008;2023-10-31T22:18:15;12.70;69.10
29007;DHT22;16104;48.642;9.008;2023-10-31T22:23:10;12.60;69.00
29007;DHT22;16104;48.642;9.008;2023-10-31T22:28:06;12.70;69.10
29007;DHT22;16104;48.642;9.008;2023-10-31T22:33:02;12.60;69.10
29007;DHT22;16104;48.642;9.008;2023-10-31T22:37:57;12.60;69.20
29007;DHT22;16104;48.642;9.008;2023-10-31T22:42:53;12.40;69.20
29007;DHT22;16104;48.642;9.008;2023-10-31T22:47:50;12.50;69.40
29007;DHT22;16104;48.642;9.008;2023-10-31T22:52:46;12.40;69.40
29007;DHT22;16104;48.642;9.008;2023-10-31T22:57:44;12.50;69.50
29007;DHT22;16104;48.642;9.008;2023-10-31T23:02:40;12.40;69.50
29007;DHT22;16104;48.642;9.008;2023-10-31T23:07:37;12.40;69.50
29007;DHT22;16104;48.642;9.008;2023-10-31T23:12:32;12.40;69.60
29007;DHT22;16104;48.642;9.008;2023-10-31T23:17:28;12.40;69.50
29007;DHT22;16104;48.642;9.008;2023-10-31T23:22:25;12.40;69.50
29007;DHT22;16104;48.642;9.008;2023-10-31T23:27:21;12.40;69.40
29007;DHT22;16104;48.642;9.008;2023-10-31T23:32:17;12.50;69.30
29007;DHT22;16104;48.642;9.008;2023-10-31T23:37:12;12.50;69.20
29007;DHT22;16104;48.642;9.008;2023-10-31T23:42:08;12.50;69.20
29007;DHT22;16104;48.642;9.008;2023-10-31T23:47:04;12.50;69.20
29007;DHT22;16104;48.642;9.008;2023-10-31T23:52:00;12.50;69.20
29007;DHT22;16104;48.642;9.008;2023-10-31T23:56:56;12.60;69.20
